createdAt,value
2022-09-26T00:02:37.731Z,11.03
2022-09-26T00:07:39.648Z,11.02
2022-09-26T00:12:41.406Z,11.04
2022-09-26T00:17:45.651Z,11.03
2022-09-26T00:22:52.330Z,11.02
2022-09-26T00:27:58.578Z,11.03
2022-09-26T00:33:00.246Z,11.04
2022-09-26T00:38:05.365Z,11.06
2022-09-26T00:43:28.330Z,11.01
2022-09-26T00:48:34.001Z,11.01
2022-09-26T00:53:42.721Z,11.00
2022-09-26T00:59:02.549Z,10.96
2022-09-26T01:04:07.547Z,10.93
2022-09-26T01:09:29.087Z,10.93
2022-09-26T01:14:31.940Z,10.90
2022-09-26T01:19:40.744Z,10.89
2022-09-26T01:25:08.431Z,10.89
2022-09-26T01:30:36.593Z,10.90
2022-09-26T01:36:03.285Z,10.88
2022-09-26T01:41:16.983Z,10.87
2022-09-26T01:46:32.194Z,10.86
2022-09-26T01:51:47.596Z,10.86
2022-09-26T01:56:53.484Z,10.85
2022-09-26T02:02:02.432Z,10.84
2022-09-26T02:07:24.446Z,10.83
2022-09-26T02:12:36.780Z,10.83
2022-09-26T02:17:48.177Z,10.84
2022-09-26T02:22:49.947Z,10.82
2022-09-26T02:27:55.791Z,10.84
2022-09-26T02:32:57.668Z,10.86
2022-09-26T02:38:01.800Z,10.86
2022-09-26T02:43:27.505Z,10.87
2022-09-26T02:48:31.716Z,10.84
2022-09-26T02:53:33.420Z,10.83
2022-09-26T02:58:45.733Z,10.82
2022-09-26T03:04:02.607Z,10.81
2022-09-26T03:09:05.170Z,10.81
2022-09-26T03:14:09.839Z,10.81
2022-09-26T03:19:32.866Z,10.82
2022-09-26T03:24:46.712Z,10.80
2022-09-26T03:29:51.499Z,10.79
2022-09-26T03:35:00.988Z,10.78
2022-09-26T03:40:10.559Z,10.76
2022-09-26T03:45:28.723Z,10.76
2022-09-26T03:50:37.728Z,10.73
2022-09-26T03:55:39.762Z,10.67
2022-09-26T04:00:42.992Z,10.65
2022-09-26T04:05:44.961Z,10.59
2022-09-26T04:10:47.475Z,10.50
2022-09-26T04:15:56.122Z,10.44
2022-09-26T04:21:10.326Z,10.40
2022-09-26T04:26:22.808Z,10.37
2022-09-26T04:31:28.193Z,10.33
2022-09-26T04:36:38.862Z,10.30
2022-09-26T04:41:40.618Z,10.27
2022-09-26T04:46:42.383Z,10.25
2022-09-26T04:51:46.952Z,10.25
2022-09-26T04:56:48.806Z,10.22
2022-09-26T05:01:51.341Z,10.21
2022-09-26T05:07:01.698Z,10.19
2022-09-26T05:12:08.772Z,10.19
2022-09-26T05:17:12.839Z,10.18
2022-09-26T05:22:15.157Z,10.18
2022-09-26T05:27:19.323Z,10.20
2022-09-26T05:32:29.106Z,10.20
2022-09-26T05:37:31.386Z,10.20
2022-09-26T05:42:36.611Z,10.20
2022-09-26T05:47:42.919Z,10.20
2022-09-26T05:52:50.382Z,10.22
2022-09-26T05:58:01.095Z,10.24
2022-09-26T06:03:25.288Z,10.25
2022-09-26T06:08:40.790Z,10.26
2022-09-26T06:14:14.356Z,10.28
2022-09-26T06:19:22.698Z,10.31
2022-09-26T06:24:25.008Z,10.34
2022-09-26T06:29:37.789Z,10.36
2022-09-26T06:34:39.931Z,10.40
2022-09-26T06:39:48.823Z,10.42
2022-09-26T06:44:53.427Z,10.43
2022-09-26T06:50:23.399Z,10.46
2022-09-26T06:55:33.622Z,10.49
2022-09-26T07:00:37.106Z,10.54
2022-09-26T07:05:59.473Z,10.59
2022-09-26T07:11:30.450Z,10.63
2022-09-26T07:16:32.543Z,10.65
2022-09-26T07:21:59.521Z,10.67
2022-09-26T07:27:05.680Z,10.69
2022-09-26T07:32:10.941Z,10.70
2022-09-26T07:37:34.801Z,10.70
2022-09-26T07:42:38.736Z,10.71
2022-09-26T07:48:04.663Z,10.74
2022-09-26T07:53:35.035Z,10.79
2022-09-26T07:59:05.309Z,10.88
2022-09-26T08:04:28.361Z,10.92
2022-09-26T08:09:30.208Z,10.91
2022-09-26T08:14:53.040Z,10.91
2022-09-26T08:20:08.652Z,10.95
2022-09-26T08:25:20.456Z,10.98
2022-09-26T08:30:40.864Z,11.03
2022-09-26T08:35:45.334Z,11.04
2022-09-26T08:41:20.115Z,11.07
2022-09-26T08:47:01.864Z,11.20
2022-09-26T08:52:36.945Z,11.33
2022-09-26T08:57:44.899Z,11.41
2022-09-26T09:03:05.092Z,11.50
2022-09-26T09:08:22.871Z,11.52
2022-09-26T09:13:56.150Z,11.61
2022-09-26T09:19:53.874Z,11.59
2022-09-26T09:25:31.856Z,11.53
2022-09-26T09:30:45.726Z,11.49
2022-09-26T09:36:14.008Z,11.52
2022-09-26T09:41:46.867Z,11.62
2022-09-26T09:46:51.541Z,11.69
2022-09-26T09:52:55.331Z,11.78
2022-09-26T09:58:29.882Z,11.92
2022-09-26T10:04:06.594Z,11.95
2022-09-26T10:09:36.038Z,12.01
2022-09-26T10:15:06.716Z,12.05
2022-09-26T10:20:42.357Z,12.09
2022-09-26T10:25:49.005Z,12.10
2022-09-26T10:30:51.904Z,12.13
2022-09-26T10:36:09.600Z,12.24
2022-09-26T10:41:24.135Z,12.20
2022-09-26T10:46:33.139Z,12.16
2022-09-26T10:52:04.589Z,12.20
2022-09-26T10:57:09.561Z,12.24
2022-09-26T11:02:20.064Z,12.30
2022-09-26T11:07:33.351Z,12.30
2022-09-26T11:13:00.540Z,12.26
2022-09-26T11:18:04.888Z,12.25
2022-09-26T11:23:35.015Z,12.13
2022-09-26T11:28:44.930Z,12.03
2022-09-26T11:39:32.548Z,11.72
2022-09-26T11:44:43.313Z,11.62
2022-09-26T11:50:15.009Z,11.53
2022-09-26T11:55:47.267Z,11.47
2022-09-26T12:00:48.905Z,11.47
2022-09-26T12:06:01.702Z,11.48
2022-09-26T12:11:34.025Z,11.43
2022-09-26T12:16:55.732Z,11.41
2022-09-26T12:22:33.464Z,11.39
2022-09-26T12:27:39.835Z,11.35
2022-09-26T12:32:45.375Z,11.37
2022-09-26T12:38:05.774Z,11.38
2022-09-26T12:43:31.586Z,11.35
2022-09-26T12:48:53.890Z,11.30
2022-09-26T12:54:15.046Z,11.19
2022-09-26T12:59:38.863Z,11.14
2022-09-26T13:05:06.703Z,11.20
2022-09-26T13:10:17.545Z,11.17
2022-09-26T13:15:34.901Z,11.14
2022-09-26T13:20:45.947Z,11.16
2022-09-26T13:25:56.571Z,11.12
2022-09-26T13:31:03.760Z,11.08
2022-09-26T13:36:09.684Z,11.08
2022-09-26T13:41:32.500Z,11.05
2022-09-26T13:46:52.647Z,10.99
2022-09-26T13:52:28.853Z,10.95
2022-09-26T13:57:49.868Z,10.92
2022-09-26T14:03:17.508Z,10.92
2022-09-26T14:08:51.224Z,10.91
2022-09-26T14:14:16.867Z,10.93
2022-09-26T14:19:28.712Z,10.95
2022-09-26T14:24:36.571Z,10.94
2022-09-26T14:29:40.565Z,10.93
2022-09-26T14:34:54.130Z,10.95
2022-09-26T14:40:12.502Z,10.98
2022-09-26T14:45:25.665Z,11.02
2022-09-26T14:50:38.460Z,11.02
2022-09-26T14:56:01.716Z,11.05
2022-09-26T15:01:19.771Z,11.04
2022-09-26T15:06:22.643Z,11.05
2022-09-26T15:11:33.034Z,11.07
2022-09-26T15:16:41.856Z,11.05
2022-09-26T15:22:06.439Z,11.05
2022-09-26T15:27:29.863Z,11.06
2022-09-26T15:32:33.339Z,11.07
2022-09-26T15:37:36.354Z,11.09
2022-09-26T15:42:56.502Z,11.13
2022-09-26T15:48:02.082Z,11.15
2022-09-26T15:53:09.128Z,11.17
2022-09-26T15:58:17.035Z,11.13
2022-09-26T16:03:28.066Z,11.14
2022-09-26T16:08:33.199Z,11.16
2022-09-26T16:13:42.941Z,11.16
2022-09-26T16:18:59.975Z,11.17
2022-09-26T16:24:26.875Z,11.17
2022-09-26T16:29:34.980Z,11.16
2022-09-26T16:34:46.153Z,11.17
2022-09-26T16:39:56.222Z,11.19
2022-09-26T16:44:59.130Z,11.17
2022-09-26T16:50:29.241Z,11.17
2022-09-26T16:55:36.474Z,11.15
2022-09-26T17:00:58.622Z,11.16
2022-09-26T17:06:00.520Z,11.14
2022-09-26T17:11:06.167Z,11.15
2022-09-26T17:16:08.856Z,11.19
2022-09-26T17:21:12.046Z,11.19
2022-09-26T17:26:21.874Z,11.21
2022-09-26T17:31:23.685Z,11.21
2022-09-26T17:36:28.564Z,11.21
2022-09-26T17:41:32.760Z,11.23
2022-09-26T17:46:37.536Z,11.24
2022-09-26T17:51:39.760Z,11.24
2022-09-26T17:56:41.530Z,11.25
2022-09-26T18:01:46.394Z,11.25
2022-09-26T18:06:48.249Z,11.27
2022-09-26T18:12:02.470Z,11.26
2022-09-26T18:17:09.146Z,11.27
2022-09-26T18:22:18.800Z,11.28
2022-09-26T18:27:23.585Z,11.28
2022-09-26T18:32:34.214Z,11.27
2022-09-26T18:37:36.001Z,11.26
2022-09-26T18:42:39.149Z,11.25
2022-09-26T18:47:44.726Z,11.23
2022-09-26T18:52:46.703Z,11.21
2022-09-26T18:58:06.852Z,11.19
2022-09-26T19:03:08.803Z,11.17
2022-09-26T19:08:27.759Z,11.17
2022-09-26T19:13:31.517Z,11.16
2022-09-26T19:18:35.985Z,11.16
2022-09-26T19:23:41.812Z,11.16
2022-09-26T19:28:44.990Z,11.16
2022-09-26T19:33:47.635Z,11.17
2022-09-26T19:38:53.698Z,11.16
2022-09-26T19:43:55.728Z,11.17
2022-09-26T19:49:00.212Z,11.14
2022-09-26T19:54:06.560Z,11.09
2022-09-26T19:59:11.841Z,11.04
2022-09-26T20:04:16.260Z,11.01
2022-09-26T20:09:19.696Z,11.01
2022-09-26T20:14:24.539Z,10.99
2022-09-26T20:19:40.044Z,10.97
2022-09-26T20:24:44.241Z,10.96
2022-09-26T20:30:06.332Z,10.95
2022-09-26T20:35:11.007Z,10.92
2022-09-26T20:40:20.104Z,10.90
2022-09-26T20:45:29.919Z,10.85
2022-09-26T20:50:34.167Z,10.81
2022-09-26T20:55:43.968Z,10.77
2022-09-26T21:00:48.855Z,10.75
2022-09-26T21:05:53.161Z,10.71
2022-09-26T21:10:56.159Z,10.67
2022-09-26T21:16:00.146Z,10.65
2022-09-26T21:21:07.957Z,10.63
2022-09-26T21:26:31.285Z,10.61
2022-09-26T21:31:34.439Z,10.60
2022-09-26T21:36:39.256Z,10.60
2022-09-26T21:41:41.060Z,10.60
2022-09-26T21:46:45.094Z,10.63
2022-09-26T21:51:52.671Z,10.63
2022-09-26T21:56:59.746Z,10.64
2022-09-26T22:02:04.708Z,10.65
2022-09-26T22:07:11.148Z,10.66
2022-09-26T22:12:15.378Z,10.66
2022-09-26T22:17:19.412Z,10.67
2022-09-26T22:22:23.264Z,10.67
2022-09-26T22:27:25.078Z,10.65
2022-09-26T22:32:31.386Z,10.66
2022-09-26T22:37:38.977Z,10.64
2022-09-26T22:42:43.710Z,10.63
2022-09-26T22:47:45.492Z,10.61
2022-09-26T22:52:47.624Z,10.59
2022-09-26T22:57:58.352Z,10.58
2022-09-26T23:03:03.073Z,10.56
2022-09-26T23:08:07.874Z,10.57
2022-09-26T23:13:14.880Z,10.53
2022-09-26T23:18:16.618Z,10.49
2022-09-26T23:23:19.600Z,10.44
2022-09-26T23:28:23.932Z,10.40
2022-09-26T23:33:27.730Z,10.38
2022-09-26T23:38:32.990Z,10.35
2022-09-26T23:43:37.385Z,10.33
2022-09-26T23:48:39.617Z,10.33
2022-09-26T23:53:44.359Z,10.33
2022-09-26T23:58:47.050Z,10.31
